sensor_id;sensor_type;location;lat;lon;timestamp;pressure;altitude;pressure_sealevel;temperature;humidity
72548;BME280;60570;50.848;6.776;2023-04-22T00:00:12;99771.34;;;12.48;65.69
72548;BME280;60570;50.848;6.776;2023-04-22T00:01:13;99778.06;;;12.47;65.98
72548;BME280;60570;50.848;6.776;2023-04-22T00:02:16;99780.84;;;12.47;66.26
72548;BME280;60570;50.848;6.776;2023-04-22T00:03:18;99780.84;;;12.47;65.45
72548;BME280;60570;50.848;6.776;2023-04-22T00:04:21;99775.28;;;12.47;65.89
72548;BME280;60570;50.848;6.776;2023-04-22T00:05:22;99781.22;;;12.46;65.90
72548;BME280;60570;50.848;6.776;2023-04-22T00:06:23;99774.50;;;12.47;65.79
72548;BME280;60570;50.848;6.776;2023-04-22T00:07:24;99772.06;;;12.45;65.83
72548;BME280;60570;50.848;6.776;2023-04-22T00:08:27;99771.28;;;12.45;66.10
72548;BME280;60570;50.848;6.776;2023-04-22T00:09:28;99769.28;;;12.45;65.99
72548;BME280;60570;50.848;6.776;2023-04-22T00:10:29;99768.50;;;12.45;66.06
72548;BME280;60570;50.848;6.776;2023-04-22T00:11:30;99766.88;;;12.44;65.75
72548;BME280;60570;50.848;6.776;2023-04-22T00:12:31;99778.00;;;12.44;65.58
72548;BME280;60570;50.848;6.776;2023-04-22T00:13:32;99764.91;;;12.44;65.97
72548;BME280;60570;50.848;6.776;2023-04-22T00:14:34;99769.28;;;12.45;65.84
72548;BME280;60570;50.848;6.776;2023-04-22T00:15:34;99766.09;;;12.43;65.99
72548;BME280;60570;50.848;6.776;2023-04-22T00:16:37;99767.25;;;12.42;65.66
72548;BME280;60570;50.848;6.776;2023-04-22T00:17:38;99768.88;;;12.43;66.10
72548;BME280;60570;50.848;6.776;2023-04-22T00:18:40;99774.44;;;12.43;66.04
72548;BME280;60570;50.848;6.776;2023-04-22T00:19:41;99770.84;;;12.43;65.57
72548;BME280;60570;50.848;6.776;2023-04-22T00:20:43;99771.66;;;12.43;65.86
72548;BME280;60570;50.848;6.776;2023-04-22T00:21:44;99768.44;;;12.41;65.61
72548;BME280;60570;50.848;6.776;2023-04-22T00:22:46;99766.78;;;12.40;65.79
72548;BME280;60570;50.848;6.776;2023-04-22T00:23:48;99769.94;;;12.39;66.12
72548;BME280;60570;50.848;6.776;2023-04-22T00:24:49;99766.78;;;12.40;65.85
72548;BME280;60570;50.848;6.776;2023-04-22T00:25:50;99767.59;;;12.41;66.00
72548;BME280;60570;50.848;6.776;2023-04-22T00:26:52;99768.75;;;12.40;66.13
72548;BME280;60570;50.848;6.776;2023-04-22T00:27:52;99765.97;;;12.40;66.12
72548;BME280;60570;50.848;6.776;2023-04-22T00:28:54;99765.97;;;12.40;65.57
72548;BME280;60570;50.848;6.776;2023-04-22T00:29:55;99765.97;;;12.40;65.62
72548;BME280;60570;50.848;6.776;2023-04-22T00:30:56;99769.56;;;12.40;66.07
72548;BME280;60570;50.848;6.776;2023-04-22T00:31:58;99769.13;;;12.38;65.98
72548;BME280;60570;50.848;6.776;2023-04-22T00:32:59;99766.34;;;12.38;65.99
72548;BME280;60570;50.848;6.776;2023-04-22T00:34:00;99765.53;;;12.38;65.81
72548;BME280;60570;50.848;6.776;2023-04-22T00:35:02;99763.56;;;12.38;65.94
72548;BME280;60570;50.848;6.776;2023-04-22T00:36:03;99766.34;;;12.38;65.84
72548;BME280;60570;50.848;6.776;2023-04-22T00:37:04;99765.53;;;12.38;65.93
72548;BME280;60570;50.848;6.776;2023-04-22T00:38:05;99771.09;;;12.38;66.29
72548;BME280;60570;50.848;6.776;2023-04-22T00:39:08;99765.53;;;12.38;65.70
72548;BME280;60570;50.848;6.776;2023-04-22T00:40:09;99770.31;;;12.37;65.88
72548;BME280;60570;50.848;6.776;2023-04-22T00:41:11;99765.53;;;12.38;65.89
72548;BME280;60570;50.848;6.776;2023-04-22T00:42:12;99763.94;;;12.37;66.14
72548;BME280;60570;50.848;6.776;2023-04-22T00:43:15;99766.72;;;12.37;66.11
72548;BME280;60570;50.848;6.776;2023-04-22T00:44:16;99767.88;;;12.36;66.21
72548;BME280;60570;50.848;6.776;2023-04-22T00:45:19;99770.66;;;12.36;66.11
72548;BME280;60570;50.848;6.776;2023-04-22T00:46:20;99775.09;;;12.37;65.60
72548;BME280;60570;50.848;6.776;2023-04-22T00:47:22;99765.09;;;12.36;66.03
72548;BME280;60570;50.848;6.776;2023-04-22T00:48:26;99768.69;;;12.36;66.34
72548;BME280;60570;50.848;6.776;2023-04-22T00:49:28;99759.09;;;12.34;66.24
72548;BME280;60570;50.848;6.776;2023-04-22T00:50:30;99765.47;;;12.34;66.18
72548;BME280;60570;50.848;6.776;2023-04-22T00:51:31;99764.66;;;12.34;65.95
72548;BME280;60570;50.848;6.776;2023-04-22T00:52:32;99769.06;;;12.35;66.15
72548;BME280;60570;50.848;6.776;2023-04-22T00:53:34;99767.09;;;12.35;65.94
72548;BME280;60570;50.848;6.776;2023-04-22T00:54:36;99770.22;;;12.34;66.00
72548;BME280;60570;50.848;6.776;2023-04-22T00:55:38;99765.47;;;12.34;66.04
72548;BME280;60570;50.848;6.776;2023-04-22T00:56:38;99774.19;;;12.33;66.01
72548;BME280;60570;50.848;6.776;2023-04-22T00:57:41;99765.84;;;12.33;66.22
72548;BME280;60570;50.848;6.776;2023-04-22T00:58:42;99765.03;;;12.32;66.08
72548;BME280;60570;50.848;6.776;2023-04-22T00:59:44;99767.00;;;12.32;65.82
72548;BME280;60570;50.848;6.776;2023-04-22T01:00:45;99771.78;;;12.31;65.93
72548;BME280;60570;50.848;6.776;2023-04-22T01:01:47;99767.00;;;12.32;66.07
72548;BME280;60570;50.848;6.776;2023-04-22T01:02:47;99766.22;;;12.31;65.88
72548;BME280;60570;50.848;6.776;2023-04-22T01:03:50;99767.81;;;12.32;66.20
72548;BME280;60570;50.848;6.776;2023-04-22T01:04:52;99775.34;;;12.32;66.03
72548;BME280;60570;50.848;6.776;2023-04-22T01:05:55;99769.00;;;12.31;65.87
72548;BME280;60570;50.848;6.776;2023-04-22T01:06:56;99768.19;;;12.31;66.13
72548;BME280;60570;50.848;6.776;2023-04-22T01:07:58;99763.81;;;12.30;66.16
72548;BME280;60570;50.848;6.776;2023-04-22T01:08:59;99768.56;;;12.29;66.39
72548;BME280;60570;50.848;6.776;2023-04-22T01:10:02;99763.81;;;12.30;66.20
72548;BME280;60570;50.848;6.776;2023-04-22T01:11:04;99769.38;;;12.30;66.06
72548;BME280;60570;50.848;6.776;2023-04-22T01:12:05;99762.16;;;12.29;66.24
72548;BME280;60570;50.848;6.776;2023-04-22T01:13:06;99769.72;;;12.28;66.30
72548;BME280;60570;50.848;6.776;2023-04-22T01:14:08;99759.75;;;12.27;65.91
72548;BME280;60570;50.848;6.776;2023-04-22T01:15:10;99763.34;;;12.28;66.19
72548;BME280;60570;50.848;6.776;2023-04-22T01:16:12;99757.34;;;12.26;66.06
72548;BME280;60570;50.848;6.776;2023-04-22T01:17:13;99762.91;;;12.26;66.22
72548;BME280;60570;50.848;6.776;2023-04-22T01:18:15;99762.09;;;12.25;66.27
72548;BME280;60570;50.848;6.776;2023-04-22T01:19:16;99754.56;;;12.26;66.50
72548;BME280;60570;50.848;6.776;2023-04-22T01:20:18;99756.53;;;12.25;66.54
72548;BME280;60570;50.848;6.776;2023-04-22T01:21:20;99759.31;;;12.25;66.00
72548;BME280;60570;50.848;6.776;2023-04-22T01:22:22;99759.31;;;12.25;66.28
72548;BME280;60570;50.848;6.776;2023-04-22T01:23:27;99760.47;;;12.24;66.28
72548;BME280;60570;50.848;6.776;2023-04-22T01:24:29;99754.13;;;12.24;66.14
72548;BME280;60570;50.848;6.776;2023-04-22T01:25:29;99756.91;;;12.24;65.96
72548;BME280;60570;50.848;6.776;2023-04-22T01:26:31;99761.28;;;12.25;66.27
72548;BME280;60570;50.848;6.776;2023-04-22T01:27:32;99759.69;;;12.24;66.31
72548;BME280;60570;50.848;6.776;2023-04-22T01:28:34;99763.25;;;12.24;65.99
72548;BME280;60570;50.848;6.776;2023-04-22T01:29:35;99759.69;;;12.24;66.26
72548;BME280;60570;50.848;6.776;2023-04-22T01:30:38;99758.88;;;12.23;66.36
72548;BME280;60570;50.848;6.776;2023-04-22T01:31:38;99757.69;;;12.24;66.45
72548;BME280;60570;50.848;6.776;2023-04-22T01:32:40;99762.47;;;12.24;66.42
72548;BME280;60570;50.848;6.776;2023-04-22T01:33:41;99754.13;;;12.24;66.05
72548;BME280;60570;50.848;6.776;2023-04-22T01:34:43;99752.13;;;12.24;66.22
72548;BME280;60570;50.848;6.776;2023-04-22T01:35:44;99755.28;;;12.23;66.52
72548;BME280;60570;50.848;6.776;2023-04-22T01:36:45;99754.47;;;12.22;66.42
72548;BME280;60570;50.848;6.776;2023-04-22T01:37:46;99752.03;;;12.21;66.22
72548;BME280;60570;50.848;6.776;2023-04-22T01:38:49;99759.25;;;12.22;66.38
72548;BME280;60570;50.848;6.776;2023-04-22T01:39:50;99756.47;;;12.22;66.55
72548;BME280;60570;50.848;6.776;2023-04-22T01:40:52;99756.47;;;12.22;66.27
72548;BME280;60570;50.848;6.776;2023-04-22T01:41:53;99756.47;;;12.22;66.27
72548;BME280;60570;50.848;6.776;2023-04-22T01:42:56;99762.03;;;12.22;66.35
72548;BME280;60570;50.848;6.776;2023-04-22T01:43:59;99757.25;;;12.22;66.38
72548;BME280;60570;50.848;6.776;2023-04-22T01:45:03;99760.03;;;12.22;66.10
72548;BME280;60570;50.848;6.776;2023-04-22T01:46:05;99753.69;;;12.22;66.36
72548;BME280;60570;50.848;6.776;2023-04-22T01:47:07;99753.69;;;12.22;66.18
72548;BME280;60570;50.848;6.776;2023-04-22T01:48:07;99758.44;;;12.21;66.11
72548;BME280;60570;50.848;6.776;2023-04-22T01:49:10;99754.00;;;12.20;66.26
72548;BME280;60570;50.848;6.776;2023-04-22T01:50:11;99756.81;;;12.20;66.14
72548;BME280;60570;50.848;6.776;2023-04-22T01:51:12;99751.22;;;12.20;66.08
72548;BME280;60570;50.848;6.776;2023-04-22T01:52:13;99752.41;;;12.19;66.35
72548;BME280;60570;50.848;6.776;2023-04-22T01:53:15;99754.00;;;12.20;66.58
72548;BME280;60570;50.848;6.776;2023-04-22T01:54:17;99751.22;;;12.20;66.24
72548;BME280;60570;50.848;6.776;2023-04-22T01:55:19;99754.00;;;12.20;66.30
72548;BME280;60570;50.848;6.776;2023-04-22T01:56:20;99753.22;;;12.20;66.14
72548;BME280;60570;50.848;6.776;2023-04-22T01:57:21;99756.03;;;12.20;66.24
72548;BME280;60570;50.848;6.776;2023-04-22T01:58:22;99756.03;;;12.20;66.27
72548;BME280;60570;50.848;6.776;2023-04-22T01:59:24;99746.03;;;12.19;66.27
72548;BME280;60570;50.848;6.776;2023-04-22T02:00:25;99750.78;;;12.18;66.31
72548;BME280;60570;50.848;6.776;2023-04-22T02:01:26;99747.22;;;12.18;66.43
72548;BME280;60570;50.848;6.776;2023-04-22T02:02:27;99747.56;;;12.16;66.54
72548;BME280;60570;50.848;6.776;2023-04-22T02:03:28;99743.63;;;12.17;66.39
72548;BME280;60570;50.848;6.776;2023-04-22T02:04:29;99747.22;;;12.18;66.27
72548;BME280;60570;50.848;6.776;2023-04-22T02:05:31;99739.22;;;12.16;66.50
72548;BME280;60570;50.848;6.776;2023-04-22T02:06:31;99742.00;;;12.16;66.44
72548;BME280;60570;50.848;6.776;2023-04-22T02:07:33;99741.22;;;12.16;66.44
72548;BME280;60570;50.848;6.776;2023-04-22T02:08:35;99735.63;;;12.16;66.54
72548;BME280;60570;50.848;6.776;2023-04-22T02:09:39;99735.63;;;12.16;66.29
72548;BME280;60570;50.848;6.776;2023-04-22T02:10:39;99730.84;;;12.16;66.25
72548;BME280;60570;50.848;6.776;2023-04-22T02:11:41;99736.44;;;12.16;66.35
72548;BME280;60570;50.848;6.776;2023-04-22T02:12:41;99726.47;;;12.15;66.30
72548;BME280;60570;50.848;6.776;2023-04-22T02:13:43;99734.00;;;12.15;66.50
72548;BME280;60570;50.848;6.776;2023-04-22T02:14:44;99734.81;;;12.15;66.21
72548;BME280;60570;50.848;6.776;2023-04-22T02:15:46;99728.44;;;12.15;66.50
72548;BME280;60570;50.848;6.776;2023-04-22T02:16:46;99732.03;;;12.15;66.32
72548;BME280;60570;50.848;6.776;2023-04-22T02:17:48;99732.84;;;12.16;66.35
72548;BME280;60570;50.848;6.776;2023-04-22T02:18:49;99718.50;;;12.14;66.70
72548;BME280;60570;50.848;6.776;2023-04-22T02:19:51;99720.91;;;12.15;66.48
72548;BME280;60570;50.848;6.776;2023-04-22T02:20:52;99723.25;;;12.13;66.83
72548;BME280;60570;50.848;6.776;2023-04-22T02:21:53;99726.47;;;12.15;66.17
72548;BME280;60570;50.848;6.776;2023-04-22T02:22:55;99732.03;;;12.15;66.37
72548;BME280;60570;50.848;6.776;2023-04-22T02:23:56;99726.03;;;12.13;66.71
72548;BME280;60570;50.848;6.776;2023-04-22T02:24:58;99733.56;;;12.13;66.58
72548;BME280;60570;50.848;6.776;2023-04-22T02:26:00;99726.03;;;12.13;66.64
72548;BME280;60570;50.848;6.776;2023-04-22T02:27:02;99730.78;;;12.13;66.34
72548;BME280;60570;50.848;6.776;2023-04-22T02:28:04;99728.00;;;12.13;66.58
72548;BME280;60570;50.848;6.776;2023-04-22T02:29:05;99732.78;;;12.12;66.39
72548;BME280;60570;50.848;6.776;2023-04-22T02:30:07;99735.56;;;12.12;66.58
72548;BME280;60570;50.848;6.776;2023-04-22T02:31:09;99736.34;;;12.13;66.53
72548;BME280;60570;50.848;6.776;2023-04-22T02:32:10;99732.78;;;12.12;66.47
72548;BME280;60570;50.848;6.776;2023-04-22T02:33:11;99736.34;;;12.13;66.34
72548;BME280;60570;50.848;6.776;2023-04-22T02:34:13;99738.34;;;12.12;66.17
72548;BME280;60570;50.848;6.776;2023-04-22T02:35:13;99733.94;;;12.11;66.61
72548;BME280;60570;50.848;6.776;2023-04-22T02:36:15;99729.19;;;12.12;66.79
72548;BME280;60570;50.848;6.776;2023-04-22T02:37:16;99736.72;;;12.11;66.54
72548;BME280;60570;50.848;6.776;2023-04-22T02:38:18;99736.72;;;12.11;66.59
72548;BME280;60570;50.848;6.776;2023-04-22T02:39:19;99733.94;;;12.11;66.52
72548;BME280;60570;50.848;6.776;2023-04-22T02:40:22;99729.56;;;12.10;66.59
72548;BME280;60570;50.848;6.776;2023-04-22T02:41:23;99731.16;;;12.11;66.46
72548;BME280;60570;50.848;6.776;2023-04-22T02:42:25;99726.78;;;12.10;66.46
72548;BME280;60570;50.848;6.776;2023-04-22T02:43:26;99738.25;;;12.09;66.41
72548;BME280;60570;50.848;6.776;2023-04-22T02:44:27;99724.34;;;12.09;66.66
72548;BME280;60570;50.848;6.776;2023-04-22T02:45:28;99725.16;;;12.09;66.58
72548;BME280;60570;50.848;6.776;2023-04-22T02:46:30;99734.31;;;12.10;66.73
72548;BME280;60570;50.848;6.776;2023-04-22T02:47:30;99732.34;;;12.10;66.67
72548;BME280;60570;50.848;6.776;2023-04-22T02:48:32;99729.91;;;12.09;66.59
72548;BME280;60570;50.848;6.776;2023-04-22T02:49:33;99725.97;;;12.10;66.39
72548;BME280;60570;50.848;6.776;2023-04-22T02:50:34;99724.34;;;12.09;66.51
72548;BME280;60570;50.848;6.776;2023-04-22T02:51:36;99728.75;;;12.10;66.33
72548;BME280;60570;50.848;6.776;2023-04-22T02:52:38;99728.75;;;12.10;66.51
72548;BME280;60570;50.848;6.776;2023-04-22T02:53:39;99722.38;;;12.09;66.67
72548;BME280;60570;50.848;6.776;2023-04-22T02:54:41;99721.53;;;12.09;66.59
72548;BME280;60570;50.848;6.776;2023-04-22T02:55:43;99723.53;;;12.08;66.39
72548;BME280;60570;50.848;6.776;2023-04-22T02:56:44;99718.75;;;12.09;66.76
72548;BME280;60570;50.848;6.776;2023-04-22T02:57:45;99725.53;;;12.08;66.89
72548;BME280;60570;50.848;6.776;2023-04-22T02:58:47;99714.38;;;12.08;66.35
72548;BME280;60570;50.848;6.776;2023-04-22T02:59:47;99721.53;;;12.09;66.68
72548;BME280;60570;50.848;6.776;2023-04-22T03:00:49;99714.38;;;12.08;66.76
72548;BME280;60570;50.848;6.776;2023-04-22T03:01:50;99721.91;;;12.07;66.54
72548;BME280;60570;50.848;6.776;2023-04-22T03:02:51;99712.75;;;12.07;66.60
72548;BME280;60570;50.848;6.776;2023-04-22T03:03:52;99717.16;;;12.08;66.62
72548;BME280;60570;50.848;6.776;2023-04-22T03:04:54;99719.50;;;12.06;66.61
72548;BME280;60570;50.848;6.776;2023-04-22T03:05:55;99715.53;;;12.07;66.41
72548;BME280;60570;50.848;6.776;2023-04-22T03:06:57;99717.97;;;12.08;66.55
72548;BME280;60570;50.848;6.776;2023-04-22T03:07:58;99723.88;;;12.07;66.72
72548;BME280;60570;50.848;6.776;2023-04-22T03:08:59;99715.53;;;12.07;66.65
72548;BME280;60570;50.848;6.776;2023-04-22T03:10:00;99714.75;;;12.06;66.51
72548;BME280;60570;50.848;6.776;2023-04-22T03:11:03;99719.50;;;12.06;66.81
72548;BME280;60570;50.848;6.776;2023-04-22T03:12:04;99719.50;;;12.06;66.39
72548;BME280;60570;50.848;6.776;2023-04-22T03:13:05;99717.53;;;12.06;66.65
72548;BME280;60570;50.848;6.776;2023-04-22T03:14:06;99715.09;;;12.05;66.46
72548;BME280;60570;50.848;6.776;2023-04-22T03:15:08;99713.13;;;12.05;66.52
72548;BME280;60570;50.848;6.776;2023-04-22T03:16:09;99715.53;;;12.07;66.56
72548;BME280;60570;50.848;6.776;2023-04-22T03:17:10;99711.53;;;12.04;66.86
72548;BME280;60570;50.848;6.776;2023-04-22T03:18:11;99715.91;;;12.05;66.64
72548;BME280;60570;50.848;6.776;2023-04-22T03:19:13;99707.56;;;12.05;66.45
72548;BME280;60570;50.848;6.776;2023-04-22T03:20:14;99707.56;;;12.05;66.56
72548;BME280;60570;50.848;6.776;2023-04-22T03:21:15;99708.75;;;12.04;66.74
72548;BME280;60570;50.848;6.776;2023-04-22T03:22:16;99718.69;;;12.05;66.85
72548;BME280;60570;50.848;6.776;2023-04-22T03:23:18;99709.53;;;12.05;66.71
72548;BME280;60570;50.848;6.776;2023-04-22T03:24:18;99709.91;;;12.03;66.47
72548;BME280;60570;50.848;6.776;2023-04-22T03:25:20;99716.28;;;12.04;66.78
72548;BME280;60570;50.848;6.776;2023-04-22T03:26:22;99714.31;;;12.04;66.62
72548;BME280;60570;50.848;6.776;2023-04-22T03:27:24;99708.75;;;12.04;66.73
72548;BME280;60570;50.848;6.776;2023-04-22T03:28:27;99701.53;;;12.03;66.98
72548;BME280;60570;50.848;6.776;2023-04-22T03:29:29;99707.13;;;12.03;66.75
72548;BME280;60570;50.848;6.776;2023-04-22T03:30:30;99695.97;;;12.03;66.85
72548;BME280;60570;50.848;6.776;2023-04-22T03:31:31;99701.53;;;12.03;66.74
72548;BME280;60570;50.848;6.776;2023-04-22T03:32:32;99699.94;;;12.02;66.55
72548;BME280;60570;50.848;6.776;2023-04-22T03:33:34;99699.13;;;12.02;66.78
72548;BME280;60570;50.848;6.776;2023-04-22T03:34:34;99705.53;;;12.02;66.82
72548;BME280;60570;50.848;6.776;2023-04-22T03:35:36;99703.09;;;12.01;67.11
72548;BME280;60570;50.848;6.776;2023-04-22T03:36:37;99699.94;;;12.02;66.73
72548;BME280;60570;50.848;6.776;2023-04-22T03:37:38;99702.72;;;12.02;67.06
72548;BME280;60570;50.848;6.776;2023-04-22T03:38:39;99694.75;;;12.01;66.92
72548;BME280;60570;50.848;6.776;2023-04-22T03:39:40;99699.13;;;12.02;66.92
72548;BME280;60570;50.848;6.776;2023-04-22T03:40:41;99697.16;;;12.02;66.55
72548;BME280;60570;50.848;6.776;2023-04-22T03:41:45;99693.13;;;12.00;66.77
72548;BME280;60570;50.848;6.776;2023-04-22T03:42:45;99698.69;;;12.00;66.86
72548;BME280;60570;50.848;6.776;2023-04-22T03:43:47;99693.13;;;12.00;66.88
72548;BME280;60570;50.848;6.776;2023-04-22T03:44:47;99692.31;;;11.99;66.92
72548;BME280;60570;50.848;6.776;2023-04-22T03:45:49;99689.91;;;11.98;66.90
72548;BME280;60570;50.848;6.776;2023-04-22T03:46:50;99689.53;;;11.99;66.78
72548;BME280;60570;50.848;6.776;2023-04-22T03:47:52;99684.34;;;11.98;66.89
72548;BME280;60570;50.848;6.776;2023-04-22T03:48:52;99681.56;;;11.98;67.14
72548;BME280;60570;50.848;6.776;2023-04-22T03:49:54;99669.59;;;11.97;66.69
72548;BME280;60570;50.848;6.776;2023-04-22T03:50:55;99670.78;;;11.96;67.29
72548;BME280;60570;50.848;6.776;2023-04-22T03:51:57;99673.56;;;11.96;67.04
72548;BME280;60570;50.848;6.776;2023-04-22T03:52:58;99668.81;;;11.97;66.85
72548;BME280;60570;50.848;6.776;2023-04-22T03:53:59;99672.38;;;11.97;67.24
72548;BME280;60570;50.848;6.776;2023-04-22T03:55:00;99672.75;;;11.96;67.19
72548;BME280;60570;50.848;6.776;2023-04-22T03:56:02;99675.53;;;11.96;66.97
72548;BME280;60570;50.848;6.776;2023-04-22T03:57:04;99669.97;;;11.96;66.74
72548;BME280;60570;50.848;6.776;2023-04-22T03:58:06;99677.50;;;11.95;66.88
72548;BME280;60570;50.848;6.776;2023-04-22T03:59:07;99669.16;;;11.95;66.98
72548;BME280;60570;50.848;6.776;2023-04-22T04:00:09;99667.56;;;11.94;66.92
72548;BME280;60570;50.848;6.776;2023-04-22T04:01:12;99663.97;;;11.94;67.26
72548;BME280;60570;50.848;6.776;2023-04-22T04:02:13;99666.75;;;11.94;67.33
72548;BME280;60570;50.848;6.776;2023-04-22T04:03:14;99669.53;;;11.94;67.26
72548;BME280;60570;50.848;6.776;2023-04-22T04:04:16;99664.34;;;11.92;67.25
72548;BME280;60570;50.848;6.776;2023-04-22T04:05:16;99663.16;;;11.93;67.46
72548;BME280;60570;50.848;6.776;2023-04-22T04:06:18;99664.78;;;11.94;67.08
72548;BME280;60570;50.848;6.776;2023-04-22T04:07:18;99672.31;;;11.94;67.15
72548;BME280;60570;50.848;6.776;2023-04-22T04:08:20;99671.50;;;11.93;67.31
72548;BME280;60570;50.848;6.776;2023-04-22T04:09:21;99662.38;;;11.93;66.98
72548;BME280;60570;50.848;6.776;2023-04-22T04:10:23;99659.59;;;11.93;67.12
72548;BME280;60570;50.848;6.776;2023-04-22T04:11:23;99656.81;;;11.93;67.09
72548;BME280;60570;50.848;6.776;2023-04-22T04:12:28;99665.16;;;11.93;67.19
72548;BME280;60570;50.848;6.776;2023-04-22T04:13:28;99658.41;;;11.94;67.01
72548;BME280;60570;50.848;6.776;2023-04-22T04:14:31;99664.34;;;11.92;67.41
72548;BME280;60570;50.848;6.776;2023-04-22T04:15:32;99667.94;;;11.93;67.12
72548;BME280;60570;50.848;6.776;2023-04-22T04:16:34;99660.38;;;11.93;67.43
72548;BME280;60570;50.848;6.776;2023-04-22T04:17:35;99663.16;;;11.93;66.78
72548;BME280;60570;50.848;6.776;2023-04-22T04:18:37;99663.91;;;11.90;67.43
72548;BME280;60570;50.848;6.776;2023-04-22T04:19:38;99660.75;;;11.92;67.14
72548;BME280;60570;50.848;6.776;2023-04-22T04:20:40;99658.31;;;11.90;67.18
72548;BME280;60570;50.848;6.776;2023-04-22T04:21:40;99659.16;;;11.91;67.49
72548;BME280;60570;50.848;6.776;2023-04-22T04:22:42;99653.56;;;11.91;67.38
72548;BME280;60570;50.848;6.776;2023-04-22T04:23:43;99658.31;;;11.90;67.53
72548;BME280;60570;50.848;6.776;2023-04-22T04:24:45;99653.91;;;11.89;67.78
72548;BME280;60570;50.848;6.776;2023-04-22T04:25:46;99652.31;;;11.88;67.62
72548;BME280;60570;50.848;6.776;2023-04-22T04:26:49;99660.66;;;11.88;67.52
72548;BME280;60570;50.848;6.776;2023-04-22T04:27:51;99656.69;;;11.89;67.05
72548;BME280;60570;50.848;6.776;2023-04-22T04:28:53;99653.91;;;11.89;67.37
72548;BME280;60570;50.848;6.776;2023-04-22T04:29:55;99655.09;;;11.88;67.47
72548;BME280;60570;50.848;6.776;2023-04-22T04:30:56;99651.13;;;11.89;67.54
72548;BME280;60570;50.848;6.776;2023-04-22T04:31:57;99650.34;;;11.89;67.20
72548;BME280;60570;50.848;6.776;2023-04-22T04:32:58;99647.56;;;11.89;67.60
72548;BME280;60570;50.848;6.776;2023-04-22T04:34:06;99647.91;;;11.87;67.39
72548;BME280;60570;50.848;6.776;2023-04-22T04:35:07;99650.69;;;11.87;67.37
72548;BME280;60570;50.848;6.776;2023-04-22T04:36:08;99652.69;;;11.87;67.45
72548;BME280;60570;50.848;6.776;2023-04-22T04:37:10;99659.03;;;11.87;67.31
72548;BME280;60570;50.848;6.776;2023-04-22T04:38:10;99649.09;;;11.86;67.60
72548;BME280;60570;50.848;6.776;2023-04-22T04:39:13;99645.50;;;11.86;67.61
72548;BME280;60570;50.848;6.776;2023-04-22T04:40:18;99648.28;;;11.86;67.53
72548;BME280;60570;50.848;6.776;2023-04-22T04:41:21;99647.13;;;11.87;67.48
72548;BME280;60570;50.848;6.776;2023-04-22T04:42:22;99649.09;;;11.86;67.21
72548;BME280;60570;50.848;6.776;2023-04-22T04:43:25;99651.06;;;11.86;67.49
72548;BME280;60570;50.848;6.776;2023-04-22T04:44:26;99643.53;;;11.86;67.23
72548;BME280;60570;50.848;6.776;2023-04-22T04:45:31;99649.09;;;11.86;67.25
72548;BME280;60570;50.848;6.776;2023-04-22T04:46:31;99651.06;;;11.86;67.53
72548;BME280;60570;50.848;6.776;2023-04-22T04:47:34;99648.28;;;11.86;67.56
72548;BME280;60570;50.848;6.776;2023-04-22T04:48:34;99631.97;;;11.84;67.72
72548;BME280;60570;50.848;6.776;2023-04-22T04:49:36;99641.50;;;11.83;67.75
72548;BME280;60570;50.848;6.776;2023-04-22T04:50:40;99639.50;;;11.84;67.58
72548;BME280;60570;50.848;6.776;2023-04-22T04:51:42;99642.28;;;11.84;67.68
72548;BME280;60570;50.848;6.776;2023-04-22T04:52:43;99637.91;;;11.83;67.50
72548;BME280;60570;50.848;6.776;2023-04-22T04:53:47;99644.63;;;11.82;68.11
72548;BME280;60570;50.848;6.776;2023-04-22T04:54:48;99643.47;;;11.83;67.54
72548;BME280;60570;50.848;6.776;2023-04-22T04:55:49;99637.44;;;11.81;67.90
72548;BME280;60570;50.848;6.776;2023-04-22T04:56:50;99641.06;;;11.81;67.66
72548;BME280;60570;50.848;6.776;2023-04-22T04:57:52;99635.47;;;11.81;67.91
72548;BME280;60570;50.848;6.776;2023-04-22T04:58:54;99642.19;;;11.80;67.82
72548;BME280;60570;50.848;6.776;2023-04-22T04:59:56;99629.91;;;11.81;67.81
72548;BME280;60570;50.848;6.776;2023-04-22T05:00:56;99633.84;;;11.80;67.54
72548;BME280;60570;50.848;6.776;2023-04-22T05:01:58;99633.03;;;11.80;68.00
72548;BME280;60570;50.848;6.776;2023-04-22T05:02:59;99633.84;;;11.80;67.50
72548;BME280;60570;50.848;6.776;2023-04-22T05:04:00;99639.41;;;11.80;67.53
72548;BME280;60570;50.848;6.776;2023-04-22T05:05:01;99623.53;;;11.81;67.63
72548;BME280;60570;50.848;6.776;2023-04-22T05:06:03;99622.28;;;11.78;67.94
72548;BME280;60570;50.848;6.776;2023-04-22T05:07:04;99635.81;;;11.80;67.80
72548;BME280;60570;50.848;6.776;2023-04-22T05:08:05;99634.22;;;11.79;67.88
72548;BME280;60570;50.848;6.776;2023-04-22T05:09:06;99622.72;;;11.80;67.69
72548;BME280;60570;50.848;6.776;2023-04-22T05:10:09;99621.13;;;11.79;67.91
72548;BME280;60570;50.848;6.776;2023-04-22T05:11:10;99623.91;;;11.79;67.83
72548;BME280;60570;50.848;6.776;2023-04-22T05:12:11;99634.22;;;11.79;67.46
72548;BME280;60570;50.848;6.776;2023-04-22T05:13:12;99633.41;;;11.78;67.94
72548;BME280;60570;50.848;6.776;2023-04-22T05:14:15;99638.59;;;11.80;67.95
72548;BME280;60570;50.848;6.776;2023-04-22T05:15:16;99638.59;;;11.80;67.56
72548;BME280;60570;50.848;6.776;2023-04-22T05:16:17;99642.56;;;11.79;67.85
72548;BME280;60570;50.848;6.776;2023-04-22T05:17:19;99635.03;;;11.79;67.76
72548;BME280;60570;50.848;6.776;2023-04-22T05:18:21;99641.38;;;11.80;67.40
72548;BME280;60570;50.848;6.776;2023-04-22T05:19:21;99641.75;;;11.78;67.81
72548;BME280;60570;50.848;6.776;2023-04-22T05:20:23;99646.97;;;11.80;67.44
72548;BME280;60570;50.848;6.776;2023-04-22T05:21:24;99646.97;;;11.80;67.83
72548;BME280;60570;50.848;6.776;2023-04-22T05:22:27;99650.09;;;11.78;67.64
72548;BME280;60570;50.848;6.776;2023-04-22T05:23:27;99652.88;;;11.78;67.78
72548;BME280;60570;50.848;6.776;2023-04-22T05:24:29;99648.97;;;11.79;67.80
72548;BME280;60570;50.848;6.776;2023-04-22T05:25:30;99656.50;;;11.79;67.67